createdAt,value
2023-04-03T00:00:36.054Z,456.00
2023-04-03T00:01:35.853Z,457.00
2023-04-03T00:02:35.953Z,457.00
2023-04-03T00:03:35.901Z,455.00
2023-04-03T00:04:36.034Z,456.00
2023-04-03T00:05:35.959Z,457.00
2023-04-03T00:06:35.999Z,459.00
2023-04-03T00:07:36.051Z,458.00
2023-04-03T00:08:36.094Z,458.00
2023-04-03T00:09:36.106Z,456.00
2023-04-03T00:10:36.369Z,454.00
2023-04-03T00:11:36.163Z,455.00
2023-04-03T00:12:36.183Z,456.00
2023-04-03T00:13:36.172Z,457.00
2023-04-03T00:14:36.190Z,459.00
2023-04-03T00:15:36.183Z,461.00
2023-04-03T00:16:36.228Z,464.00
2023-04-03T00:17:36.244Z,465.00
2023-04-03T00:18:36.217Z,463.00
2023-04-03T00:19:36.230Z,463.00
2023-04-03T00:20:36.480Z,465.00
2023-04-03T00:21:36.245Z,465.00
2023-04-03T00:22:36.250Z,466.00
2023-04-03T00:23:36.241Z,464.00
2023-04-03T00:24:36.242Z,458.00
2023-04-03T00:25:36.234Z,454.00
2023-04-03T00:26:36.253Z,453.00
2023-04-03T00:27:36.258Z,456.00
2023-04-03T00:28:36.290Z,456.00
2023-04-03T00:29:36.276Z,457.00
2023-04-03T00:30:36.476Z,459.00
2023-04-03T00:31:36.295Z,460.00
2023-04-03T00:32:36.360Z,462.00
2023-04-03T00:33:36.301Z,463.00
2023-04-03T00:34:36.298Z,462.00
2023-04-03T00:35:36.434Z,462.00
2023-04-03T00:36:36.384Z,462.00
2023-04-03T00:37:36.314Z,464.00
2023-04-03T00:38:36.324Z,462.00
2023-04-03T00:39:36.333Z,461.00
2023-04-03T00:40:36.560Z,460.00
2023-04-03T00:41:36.340Z,458.00
2023-04-03T00:42:36.330Z,455.00
2023-04-03T00:43:36.329Z,455.00
2023-04-03T00:44:36.362Z,452.00
2023-04-03T00:45:36.339Z,455.00
2023-04-03T00:46:36.360Z,457.00
2023-04-03T00:47:36.411Z,457.00
2023-04-03T00:48:36.331Z,456.00
2023-04-03T00:49:36.335Z,457.00
2023-04-03T00:50:36.557Z,454.00
2023-04-03T00:51:36.320Z,452.00
2023-04-03T00:52:36.325Z,451.00
2023-04-03T00:53:36.324Z,451.00
2023-04-03T00:54:36.309Z,451.00
2023-04-03T00:55:36.308Z,451.00
2023-04-03T00:56:36.311Z,449.00
2023-04-03T00:57:36.400Z,450.00
2023-04-03T00:58:36.316Z,451.00
2023-04-03T00:59:36.332Z,453.00
2023-04-03T01:00:36.654Z,454.00
2023-04-03T01:01:36.352Z,454.00
2023-04-03T01:02:36.353Z,454.00
2023-04-03T01:03:36.376Z,452.00
2023-04-03T01:04:36.468Z,451.00
2023-04-03T01:05:36.357Z,452.00
2023-04-03T01:06:36.344Z,454.00
2023-04-03T01:07:36.337Z,455.00
2023-04-03T01:08:36.332Z,457.00
2023-04-03T01:09:36.358Z,458.00
2023-04-03T01:10:36.618Z,459.00
2023-04-03T01:11:36.333Z,457.00
2023-04-03T01:12:36.327Z,456.00
2023-04-03T01:13:36.322Z,454.00
2023-04-03T01:14:36.321Z,454.00
2023-04-03T01:15:36.371Z,455.00
2023-04-03T01:16:36.350Z,457.00
2023-04-03T01:17:36.418Z,457.00
2023-04-03T01:18:36.346Z,455.00
2023-04-03T01:19:36.316Z,456.00
2023-04-03T01:20:36.535Z,455.00
2023-04-03T01:21:36.262Z,455.00
2023-04-03T01:22:36.376Z,454.00
2023-04-03T01:23:36.272Z,453.00
2023-04-03T01:24:36.304Z,452.00
2023-04-03T01:25:36.266Z,450.00
2023-04-03T01:26:36.257Z,455.00
2023-04-03T01:27:36.252Z,456.00
2023-04-03T01:28:36.269Z,457.00
2023-04-03T01:29:36.257Z,459.00
2023-04-03T01:30:36.352Z,460.00
2023-04-03T01:31:36.307Z,459.00
2023-04-03T01:32:36.311Z,461.00
2023-04-03T01:33:36.258Z,463.00
2023-04-03T01:34:36.269Z,465.00
2023-04-03T01:35:36.295Z,463.00
2023-04-03T01:36:36.267Z,461.00
2023-04-03T01:37:36.264Z,461.00
2023-04-03T01:38:36.271Z,461.00
2023-04-03T01:39:36.281Z,460.00
2023-04-03T01:40:36.477Z,460.00
2023-04-03T01:41:36.264Z,461.00
2023-04-03T01:42:36.273Z,460.00
2023-04-03T01:43:36.285Z,461.00
2023-04-03T01:44:36.278Z,462.00
2023-04-03T01:45:36.294Z,461.00
2023-04-03T01:46:36.273Z,460.00
2023-04-03T01:47:36.325Z,460.00
2023-04-03T01:48:36.294Z,461.00
2023-04-03T01:49:36.297Z,463.00
2023-04-03T01:50:36.396Z,461.00
2023-04-03T01:51:36.278Z,457.00
2023-04-03T01:52:36.283Z,458.00
2023-04-03T01:53:36.277Z,457.00
2023-04-03T01:54:36.281Z,458.00
2023-04-03T01:55:36.280Z,456.00
2023-04-03T01:56:36.272Z,453.00
2023-04-03T01:57:36.308Z,453.00
2023-04-03T01:58:36.280Z,451.00
2023-04-03T01:59:36.290Z,450.00
2023-04-03T02:00:36.435Z,451.00
2023-04-03T02:01:36.312Z,451.00
2023-04-03T02:02:36.307Z,451.00
2023-04-03T02:03:36.355Z,451.00
2023-04-03T02:04:36.312Z,451.00
2023-04-03T02:05:36.283Z,451.00
2023-04-03T02:06:36.298Z,448.00
2023-04-03T02:07:36.309Z,449.00
2023-04-03T02:08:36.308Z,448.00
2023-04-03T02:09:36.310Z,449.00
2023-04-03T02:10:36.455Z,450.00
2023-04-03T02:11:36.362Z,449.00
2023-04-03T02:12:36.321Z,451.00
2023-04-03T02:13:36.310Z,451.00
2023-04-03T02:14:36.320Z,450.00
2023-04-03T02:15:36.303Z,452.00
2023-04-03T02:16:36.336Z,451.00
2023-04-03T02:17:36.379Z,453.00
2023-04-03T02:18:36.328Z,455.00
2023-04-03T02:19:36.317Z,455.00
2023-04-03T02:20:36.605Z,456.00
2023-04-03T02:21:36.325Z,456.00
2023-04-03T02:22:36.329Z,461.00
2023-04-03T02:23:36.314Z,459.00
2023-04-03T02:24:36.326Z,456.00
2023-04-03T02:25:38.563Z,457.00
2023-04-03T02:26:36.316Z,457.00
2023-04-03T02:27:36.308Z,459.00
2023-04-03T02:28:36.296Z,459.00
2023-04-03T02:29:36.286Z,459.00
2023-04-03T02:30:36.602Z,462.00
2023-04-03T02:31:36.247Z,462.00
2023-04-03T02:32:36.269Z,462.00
2023-04-03T02:33:36.228Z,459.00
2023-04-03T02:34:36.220Z,459.00
2023-04-03T02:35:36.249Z,458.00
2023-04-03T02:36:36.230Z,461.00
2023-04-03T02:37:36.196Z,457.00
2023-04-03T02:38:36.192Z,459.00
2023-04-03T02:39:36.197Z,458.00
2023-04-03T02:40:36.617Z,460.00
2023-04-03T02:41:36.225Z,460.00
2023-04-03T02:42:36.163Z,460.00
2023-04-03T02:43:36.159Z,466.00
2023-04-03T02:44:36.158Z,465.00
2023-04-03T02:45:36.148Z,463.00
2023-04-03T02:46:36.158Z,465.00
2023-04-03T02:47:36.215Z,464.00
2023-04-03T02:48:36.133Z,462.00
2023-04-03T02:49:36.125Z,461.00
2023-04-03T02:50:36.374Z,457.00
2023-04-03T02:51:36.103Z,457.00
2023-04-03T02:52:36.135Z,456.00
2023-04-03T02:53:36.102Z,455.00
2023-04-03T02:54:36.093Z,455.00
2023-04-03T02:55:36.089Z,457.00
2023-04-03T02:56:36.088Z,459.00
2023-04-03T02:57:36.135Z,458.00
2023-04-03T02:58:36.077Z,458.00
2023-04-03T02:59:36.060Z,459.00
2023-04-03T03:00:36.310Z,457.00
2023-04-03T03:01:36.821Z,453.00
2023-04-03T03:02:36.042Z,454.00
2023-04-03T03:03:36.027Z,452.00
2023-04-03T03:04:36.047Z,452.00
2023-04-03T03:05:36.024Z,453.00
2023-04-03T03:06:36.015Z,455.00
2023-04-03T03:07:36.007Z,456.00
2023-04-03T03:08:36.027Z,458.00
2023-04-03T03:09:35.988Z,460.00
2023-04-03T03:10:36.276Z,461.00
2023-04-03T03:11:35.972Z,460.00
2023-04-03T03:12:35.961Z,457.00
2023-04-03T03:13:35.952Z,453.00
2023-04-03T03:14:35.956Z,451.00
2023-04-03T03:15:35.934Z,452.00
2023-04-03T03:16:35.934Z,451.00
2023-04-03T03:17:36.021Z,452.00
2023-04-03T03:18:35.941Z,457.00
2023-04-03T03:19:35.932Z,455.00
2023-04-03T03:20:36.099Z,451.00
2023-04-03T03:21:35.905Z,452.00
2023-04-03T03:22:35.886Z,451.00
2023-04-03T03:23:35.881Z,454.00
2023-04-03T03:24:35.904Z,455.00
2023-04-03T03:25:36.041Z,455.00
2023-04-03T03:26:35.840Z,456.00
2023-04-03T03:27:35.833Z,456.00
2023-04-03T03:28:35.812Z,454.00
2023-04-03T03:29:35.804Z,454.00
2023-04-03T03:30:35.799Z,458.00
2023-04-03T03:31:35.852Z,460.00
2023-04-03T03:32:35.836Z,460.00
2023-04-03T03:33:35.770Z,460.00
2023-04-03T03:34:35.756Z,460.00
2023-04-03T03:35:35.939Z,458.00
2023-04-03T03:36:35.743Z,460.00
2023-04-03T03:37:35.715Z,462.00
2023-04-03T03:38:35.707Z,463.00
2023-04-03T03:39:35.701Z,459.00
2023-04-03T03:40:35.720Z,459.00
2023-04-03T03:41:35.680Z,460.00
2023-04-03T03:42:35.694Z,461.00
2023-04-03T03:43:35.684Z,459.00
2023-04-03T03:44:35.665Z,459.00
2023-04-03T03:45:35.901Z,460.00
2023-04-03T03:46:35.729Z,459.00
2023-04-03T03:47:35.675Z,460.00
2023-04-03T03:48:35.651Z,462.00
2023-04-03T03:49:35.648Z,464.00
2023-04-03T03:50:35.634Z,464.00
2023-04-03T03:51:35.641Z,464.00
2023-04-03T03:52:35.632Z,462.00
2023-04-03T03:53:35.620Z,464.00
2023-04-03T03:54:35.606Z,465.00
2023-04-03T03:55:35.919Z,462.00
2023-04-03T03:56:35.628Z,463.00
2023-04-03T03:57:35.625Z,465.00
2023-04-03T03:58:35.606Z,465.00
2023-04-03T03:59:35.588Z,466.00
2023-04-03T04:00:35.581Z,463.00
2023-04-03T04:01:35.586Z,462.00
2023-04-03T04:02:35.675Z,460.00
2023-04-03T04:03:35.661Z,461.00
2023-04-03T04:04:35.552Z,460.00
2023-04-03T04:05:35.942Z,461.00
2023-04-03T04:06:35.541Z,461.00
2023-04-03T04:07:35.533Z,464.00
2023-04-03T04:08:35.528Z,462.00
2023-04-03T04:09:35.518Z,462.00
2023-04-03T04:10:35.521Z,463.00
2023-04-03T04:11:35.521Z,463.00
2023-04-03T04:12:35.550Z,465.00
2023-04-03T04:13:35.522Z,466.00
2023-04-03T04:14:35.567Z,466.00
2023-04-03T04:15:35.991Z,465.00
2023-04-03T04:16:35.548Z,463.00
2023-04-03T04:17:35.595Z,464.00
2023-04-03T04:18:35.544Z,466.00
2023-04-03T04:19:35.549Z,466.00
2023-04-03T04:20:35.551Z,464.00
2023-04-03T04:21:35.564Z,463.00
2023-04-03T04:22:35.549Z,463.00
2023-04-03T04:23:35.546Z,464.00
2023-04-03T04:24:37.299Z,464.00
2023-04-03T04:25:35.752Z,464.00
2023-04-03T04:26:35.532Z,462.00
2023-04-03T04:27:35.530Z,462.00
2023-04-03T04:28:35.545Z,460.00
2023-04-03T04:29:35.524Z,460.00
2023-04-03T04:30:35.497Z,459.00
2023-04-03T04:31:35.550Z,461.00
2023-04-03T04:32:35.506Z,465.00
2023-04-03T04:33:35.482Z,469.00
2023-04-03T04:34:35.493Z,469.00
2023-04-03T04:35:35.792Z,465.00
2023-04-03T04:36:35.509Z,461.00
2023-04-03T04:37:35.461Z,460.00
2023-04-03T04:38:35.446Z,462.00
2023-04-03T04:39:35.439Z,460.00
2023-04-03T04:40:35.451Z,462.00
2023-04-03T04:41:35.448Z,462.00
2023-04-03T04:42:35.427Z,463.00
2023-04-03T04:43:35.422Z,462.00
2023-04-03T04:44:35.432Z,465.00
2023-04-03T04:45:35.786Z,465.00
2023-04-03T04:46:35.454Z,462.00
2023-04-03T04:47:35.428Z,461.00
2023-04-03T04:48:35.397Z,460.00
2023-04-03T04:49:35.397Z,459.00
2023-04-03T04:50:35.373Z,462.00
2023-04-03T04:51:48.410Z,461.00
2023-04-03T04:52:35.364Z,459.00
2023-04-03T04:53:35.348Z,462.00
2023-04-03T04:54:35.347Z,463.00
2023-04-03T04:55:35.671Z,463.00
2023-04-03T04:56:35.332Z,463.00
2023-04-03T04:57:35.486Z,463.00
2023-04-03T04:58:35.329Z,464.00
2023-04-03T04:59:35.313Z,462.00
2023-04-03T05:00:35.349Z,460.00
2023-04-03T05:01:35.311Z,461.00
2023-04-03T05:02:35.339Z,460.00
2023-04-03T05:03:35.280Z,459.00
2023-04-03T05:04:35.296Z,461.00
2023-04-03T05:05:35.640Z,460.00
2023-04-03T05:06:35.272Z,460.00
2023-04-03T05:07:35.276Z,461.00
2023-04-03T05:08:35.270Z,463.00
2023-04-03T05:09:35.264Z,465.00
2023-04-03T05:10:35.266Z,462.00
2023-04-03T05:11:35.269Z,463.00
2023-04-03T05:12:35.259Z,460.00
2023-04-03T05:13:35.248Z,460.00
2023-04-03T05:14:35.244Z,460.00
2023-04-03T05:15:35.560Z,459.00
2023-04-03T05:16:35.337Z,458.00
2023-04-03T05:17:35.263Z,460.00
2023-04-03T05:18:35.229Z,463.00
2023-04-03T05:19:35.227Z,464.00
2023-04-03T05:20:35.211Z,464.00
2023-04-03T05:21:35.208Z,466.00
2023-04-03T05:22:35.206Z,465.00
2023-04-03T05:23:35.191Z,465.00
2023-04-03T05:24:35.192Z,467.00
2023-04-03T05:25:35.457Z,466.00
2023-04-03T05:26:35.172Z,463.00
2023-04-03T05:27:35.150Z,468.00
2023-04-03T05:28:35.144Z,466.00
2023-04-03T05:29:35.139Z,466.00
2023-04-03T05:30:35.134Z,469.00
2023-04-03T05:31:35.182Z,469.00
2023-04-03T05:32:35.198Z,468.00
2023-04-03T05:33:35.123Z,465.00
2023-04-03T05:34:35.115Z,465.00
2023-04-03T05:35:35.424Z,466.00
2023-04-03T05:36:35.103Z,463.00
2023-04-03T05:37:35.073Z,462.00
2023-04-03T05:38:35.076Z,462.00
2023-04-03T05:39:35.063Z,462.00
2023-04-03T05:40:35.054Z,464.00
2023-04-03T05:41:35.082Z,464.00
2023-04-03T05:42:35.044Z,466.00
2023-04-03T05:43:35.034Z,466.00
2023-04-03T05:44:35.029Z,469.00
2023-04-03T05:45:35.067Z,470.00
2023-04-03T05:46:35.022Z,468.00
2023-04-03T05:47:35.046Z,465.00
2023-04-03T05:48:35.018Z,464.00
2023-04-03T05:49:35.006Z,465.00
2023-04-03T05:50:34.983Z,475.00
2023-04-03T05:51:34.978Z,473.00
2023-04-03T05:52:34.975Z,473.00
2023-04-03T05:53:34.964Z,471.00
2023-04-03T05:54:34.973Z,468.00
2023-04-03T05:55:34.977Z,468.00
2023-04-03T05:56:34.961Z,469.00
2023-04-03T05:57:35.070Z,471.00
2023-04-03T05:58:34.941Z,467.00
2023-04-03T05:59:34.938Z,467.00
2023-04-03T06:00:34.921Z,466.00
2023-04-03T06:01:34.929Z,466.00
2023-04-03T06:02:34.956Z,468.00
2023-04-03T06:03:36.038Z,471.00
2023-04-03T06:04:35.018Z,472.00
2023-04-03T06:05:34.912Z,472.00
2023-04-03T06:06:34.897Z,472.00
2023-04-03T06:07:34.902Z,473.00
2023-04-03T06:08:34.889Z,471.00
2023-04-03T06:09:34.878Z,468.00
2023-04-03T06:10:34.858Z,467.00
2023-04-03T06:11:34.851Z,468.00
2023-04-03T06:12:34.855Z,465.00
2023-04-03T06:13:34.833Z,467.00
2023-04-03T06:14:34.826Z,465.00
2023-04-03T06:15:34.810Z,465.00
2023-04-03T06:16:35.797Z,467.00
2023-04-03T06:17:34.818Z,468.00
2023-04-03T06:18:34.792Z,468.00
2023-04-03T06:19:34.796Z,469.00
2023-04-03T06:20:34.818Z,470.00
2023-04-03T06:21:34.791Z,470.00
2023-04-03T06:22:34.788Z,470.00
2023-04-03T06:23:34.795Z,470.00
2023-04-03T06:24:34.789Z,474.00
2023-04-03T06:25:34.774Z,474.00
2023-04-03T06:26:34.769Z,471.00
2023-04-03T06:27:34.770Z,472.00
2023-04-03T06:28:34.769Z,472.00
2023-04-03T06:29:34.752Z,472.00
2023-04-03T06:30:34.748Z,471.00
2023-04-03T06:31:34.781Z,473.00
2023-04-03T06:32:34.745Z,471.00
2023-04-03T06:33:34.735Z,473.00
2023-04-03T06:34:34.733Z,472.00
2023-04-03T06:35:34.757Z,472.00
2023-04-03T06:36:34.747Z,471.00
2023-04-03T06:37:34.729Z,471.00
2023-04-03T06:38:34.730Z,473.00
2023-04-03T06:39:34.704Z,473.00
2023-04-03T06:40:34.704Z,472.00
2023-04-03T06:41:35.963Z,473.00
2023-04-03T06:42:34.696Z,470.00
2023-04-03T06:43:35.011Z,469.00
2023-04-03T06:44:34.797Z,469.00
2023-04-03T06:45:34.673Z,470.00
2023-04-03T06:46:34.729Z,471.00
2023-04-03T06:47:34.714Z,471.00
2023-04-03T06:48:34.669Z,471.00
2023-04-03T06:49:34.657Z,473.00
2023-04-03T06:50:34.648Z,477.00
2023-04-03T06:51:34.650Z,476.00
2023-04-03T06:52:34.674Z,474.00
2023-04-03T06:53:34.646Z,471.00
2023-04-03T06:54:34.635Z,471.00
2023-04-03T06:55:34.632Z,472.00
2023-04-03T06:56:34.618Z,474.00
2023-04-03T06:57:34.732Z,473.00
2023-04-03T06:58:34.609Z,473.00
2023-04-03T06:59:34.608Z,474.00
2023-04-03T07:00:34.597Z,475.00
2023-04-03T07:01:34.637Z,474.00
2023-04-03T07:02:34.654Z,473.00
2023-04-03T07:03:35.592Z,474.00
2023-04-03T07:04:34.645Z,474.00
2023-04-03T07:05:34.577Z,474.00
2023-04-03T07:06:34.570Z,474.00
2023-04-03T07:07:34.557Z,475.00
2023-04-03T07:08:34.589Z,475.00
2023-04-03T07:09:34.550Z,474.00
2023-04-03T07:10:34.542Z,471.00
2023-04-03T07:11:34.544Z,470.00
2023-04-03T07:12:34.539Z,471.00
2023-04-03T07:13:34.564Z,470.00
2023-04-03T07:14:34.520Z,471.00
2023-04-03T07:15:34.529Z,473.00
2023-04-03T07:16:34.526Z,471.00
2023-04-03T07:17:34.556Z,472.00
2023-04-03T07:18:34.499Z,473.00
2023-04-03T07:19:34.485Z,473.00
2023-04-03T07:20:34.467Z,470.00
2023-04-03T07:21:34.458Z,469.00
2023-04-03T07:22:34.447Z,469.00
2023-04-03T07:23:34.463Z,469.00
2023-04-03T07:24:34.468Z,471.00
2023-04-03T07:25:34.428Z,470.00
2023-04-03T07:26:34.408Z,468.00
2023-04-03T07:27:34.400Z,466.00
2023-04-03T07:28:34.388Z,469.00
2023-04-03T07:29:34.378Z,470.00
2023-04-03T07:30:34.372Z,472.00
2023-04-03T07:31:34.397Z,473.00
2023-04-03T07:32:34.372Z,473.00
2023-04-03T07:33:34.335Z,472.00
2023-04-03T07:34:34.339Z,471.00
2023-04-03T07:35:34.403Z,473.00
2023-04-03T07:36:34.363Z,472.00
2023-04-03T07:37:34.321Z,472.00
2023-04-03T07:38:34.312Z,470.00
2023-04-03T07:39:34.319Z,467.00
2023-04-03T07:40:34.349Z,468.00
2023-04-03T07:41:34.313Z,467.00
2023-04-03T07:42:34.311Z,472.00
2023-04-03T07:43:34.313Z,470.00
2023-04-03T07:44:34.326Z,469.00
2023-04-03T07:45:34.375Z,471.00
2023-04-03T07:46:34.412Z,470.00
2023-04-03T07:47:34.421Z,470.00
2023-04-03T07:48:34.397Z,470.00
2023-04-03T07:49:34.403Z,471.00
2023-04-03T07:50:34.396Z,470.00
2023-04-03T07:51:34.398Z,471.00
2023-04-03T07:52:34.395Z,470.00
2023-04-03T07:53:34.420Z,470.00
2023-04-03T07:54:34.446Z,468.00
2023-04-03T07:55:35.100Z,466.00
2023-04-03T07:56:34.617Z,466.00
2023-04-03T07:57:34.533Z,471.00
2023-04-03T07:58:34.496Z,474.00
2023-04-03T07:59:34.531Z,472.00
2023-04-03T08:00:34.544Z,471.00
2023-04-03T08:01:34.603Z,470.00
2023-04-03T08:02:34.643Z,467.00
2023-04-03T08:03:34.812Z,468.00
2023-04-03T08:04:34.931Z,470.00
2023-04-03T08:05:34.844Z,470.00
2023-04-03T08:06:45.528Z,468.00
2023-04-03T08:07:34.781Z,469.00
2023-04-03T08:08:34.780Z,471.00
2023-04-03T08:09:34.766Z,471.00
2023-04-03T08:10:34.751Z,469.00
2023-04-03T08:11:34.733Z,467.00
2023-04-03T08:12:34.750Z,466.00
2023-04-03T08:13:34.715Z,464.00
2023-04-03T08:14:34.712Z,463.00
2023-04-03T08:15:34.721Z,465.00
2023-04-03T08:16:34.721Z,468.00
2023-04-03T08:17:34.744Z,467.00
2023-04-03T08:18:34.656Z,468.00
2023-04-03T08:19:34.649Z,469.00
2023-04-03T08:20:34.642Z,469.00
2023-04-03T08:21:34.643Z,469.00
2023-04-03T08:22:34.637Z,471.00
2023-04-03T08:23:34.622Z,470.00
2023-04-03T08:24:35.322Z,470.00
2023-04-03T08:25:34.621Z,471.00
2023-04-03T08:26:34.593Z,470.00
2023-04-03T08:27:34.614Z,469.00
2023-04-03T08:28:34.616Z,466.00
2023-04-03T08:29:34.831Z,465.00
2023-04-03T08:30:34.639Z,467.00
2023-04-03T08:31:34.547Z,468.00
2023-04-03T08:32:34.564Z,468.00
2023-04-03T08:33:34.540Z,467.00
2023-04-03T08:34:34.519Z,466.00
2023-04-03T08:35:36.401Z,468.00
2023-04-03T08:36:34.507Z,467.00
2023-04-03T08:37:34.503Z,466.00
2023-04-03T08:38:34.480Z,466.00
2023-04-03T08:39:34.465Z,467.00
2023-04-03T08:40:34.457Z,466.00
2023-04-03T08:41:34.447Z,466.00
2023-04-03T08:42:34.438Z,467.00
2023-04-03T08:43:34.438Z,468.00
2023-04-03T08:44:34.535Z,471.00
2023-04-03T08:45:34.419Z,472.00
2023-04-03T08:46:34.511Z,472.00
2023-04-03T08:47:34.436Z,472.00
2023-04-03T08:48:34.413Z,472.00
2023-04-03T08:49:34.441Z,471.00
2023-04-03T08:50:34.376Z,473.00
2023-04-03T08:51:34.381Z,474.00
2023-04-03T08:52:34.361Z,471.00
2023-04-03T08:53:34.385Z,472.00
2023-04-03T08:54:35.409Z,473.00
2023-04-03T08:55:34.337Z,474.00
2023-04-03T08:56:34.335Z,470.00
2023-04-03T08:57:34.395Z,467.00
2023-04-03T08:58:34.305Z,466.00
2023-04-03T08:59:34.288Z,463.00
2023-04-03T09:00:34.446Z,465.00
2023-04-03T09:01:34.453Z,468.00
2023-04-03T09:02:34.437Z,469.00
2023-04-03T09:03:34.473Z,470.00
2023-04-03T09:04:34.438Z,472.00
2023-04-03T09:05:34.451Z,470.00
2023-04-03T09:06:34.473Z,469.00
2023-04-03T09:07:34.497Z,468.00
2023-04-03T09:08:34.532Z,467.00
2023-04-03T09:09:34.560Z,466.00
2023-04-03T09:10:34.601Z,464.00
2023-04-03T09:11:34.608Z,465.00
2023-04-03T09:12:34.667Z,461.00
2023-04-03T09:13:34.687Z,461.00
2023-04-03T09:14:34.727Z,463.00
2023-04-03T09:15:38.925Z,464.00
2023-04-03T09:16:35.082Z,463.00
2023-04-03T09:17:34.789Z,467.00
2023-04-03T09:18:34.751Z,469.00
2023-04-03T09:19:34.767Z,469.00
2023-04-03T09:20:34.785Z,470.00
2023-04-03T09:21:34.738Z,470.00
2023-04-03T09:22:41.763Z,469.00
2023-04-03T09:23:34.730Z,468.00
2023-04-03T09:24:34.737Z,466.00
2023-04-03T09:25:34.718Z,463.00
2023-04-03T09:26:34.720Z,465.00
2023-04-03T09:27:34.754Z,463.00
2023-04-03T09:28:39.266Z,462.00
2023-04-03T09:29:34.690Z,461.00
2023-04-03T09:30:34.687Z,463.00
2023-04-03T09:31:34.720Z,464.00
2023-04-03T09:32:34.806Z,465.00
2023-04-03T09:33:34.654Z,466.00
2023-04-03T09:34:34.650Z,467.00
2023-04-03T09:35:46.669Z,466.00
2023-04-03T09:36:34.627Z,466.00
2023-04-03T09:37:34.628Z,467.00
2023-04-03T09:38:34.615Z,471.00
2023-04-03T09:39:34.604Z,467.00
2023-04-03T09:40:34.634Z,467.00
2023-04-03T09:41:34.597Z,465.00
2023-04-03T09:42:34.586Z,467.00
2023-04-03T09:43:34.575Z,465.00
2023-04-03T09:44:34.588Z,469.00
2023-04-03T09:45:34.566Z,470.00
2023-04-03T09:46:34.581Z,472.00
2023-04-03T09:47:34.666Z,472.00
2023-04-03T09:48:34.644Z,471.00
2023-04-03T09:49:34.512Z,471.00
2023-04-03T09:50:34.488Z,472.00
2023-04-03T09:51:34.503Z,471.00
2023-04-03T09:52:34.477Z,472.00
2023-04-03T09:53:34.471Z,475.00
2023-04-03T09:54:34.476Z,476.00
2023-04-03T09:55:34.434Z,471.00
2023-04-03T09:56:34.433Z,469.00
2023-04-03T09:57:34.605Z,467.00
2023-04-03T09:58:46.854Z,465.00
2023-04-03T09:59:34.408Z,463.00
2023-04-03T10:00:34.408Z,462.00
2023-04-03T10:01:34.527Z,464.00
2023-04-03T10:02:34.409Z,466.00
2023-04-03T10:03:34.801Z,466.00
2023-04-03T10:04:34.585Z,466.00
2023-04-03T10:05:34.366Z,467.00
2023-04-03T10:06:34.357Z,465.00
2023-04-03T10:07:34.343Z,465.00
2023-04-03T10:08:34.337Z,466.00
2023-04-03T10:09:34.345Z,468.00
2023-04-03T10:10:34.305Z,469.00
2023-04-03T10:11:34.291Z,468.00
2023-04-03T10:12:34.298Z,468.00
2023-04-03T10:13:41.971Z,464.00
2023-04-03T10:14:34.264Z,463.00
2023-04-03T10:15:34.263Z,462.00
2023-04-03T10:16:34.250Z,467.00
2023-04-03T10:17:34.270Z,467.00
2023-04-03T10:18:34.320Z,467.00
2023-04-03T10:19:34.208Z,467.00
2023-04-03T10:20:34.399Z,466.00
2023-04-03T10:21:34.203Z,467.00
2023-04-03T10:22:34.195Z,465.00
2023-04-03T10:23:34.210Z,464.00
2023-04-03T10:24:34.159Z,462.00
2023-04-03T10:25:34.194Z,465.00
2023-04-03T10:26:34.132Z,463.00
2023-04-03T10:27:34.129Z,464.00
2023-04-03T10:28:34.115Z,462.00
2023-04-03T10:29:34.104Z,461.00
2023-04-03T10:30:34.106Z,460.00
2023-04-03T10:31:34.115Z,463.00
2023-04-03T10:32:34.159Z,464.00
2023-04-03T10:33:34.055Z,465.00
2023-04-03T10:34:34.038Z,464.00
2023-04-03T10:35:34.051Z,466.00
2023-04-03T10:36:34.120Z,464.00
2023-04-03T10:37:33.981Z,464.00
2023-04-03T10:38:33.973Z,465.00
2023-04-03T10:39:33.973Z,464.00
2023-04-03T10:40:33.998Z,462.00
2023-04-03T10:41:33.943Z,464.00
2023-04-03T10:42:33.916Z,463.00
2023-04-03T10:43:33.915Z,462.00
2023-04-03T10:44:33.898Z,460.00
2023-04-03T10:45:33.888Z,459.00
2023-04-03T10:46:33.915Z,461.00
2023-04-03T10:47:35.073Z,465.00
2023-04-03T10:48:33.855Z,464.00
2023-04-03T10:49:33.856Z,466.00
2023-04-03T10:50:33.853Z,467.00
2023-04-03T10:51:33.826Z,468.00
2023-04-03T10:52:33.942Z,468.00
2023-04-03T10:53:33.825Z,465.00
2023-04-03T10:54:33.803Z,467.00
2023-04-03T10:55:33.816Z,468.00
2023-04-03T10:56:33.797Z,466.00
2023-04-03T10:57:33.812Z,463.00
2023-04-03T10:58:33.791Z,462.00
2023-04-03T10:59:33.786Z,465.00
2023-04-03T11:00:33.771Z,466.00
2023-04-03T11:01:33.841Z,466.00
2023-04-03T11:02:33.849Z,464.00
2023-04-03T11:03:33.955Z,465.00
2023-04-03T11:04:33.732Z,464.00
2023-04-03T11:05:33.734Z,463.00
2023-04-03T11:06:33.718Z,461.00
2023-04-03T11:07:33.711Z,462.00
2023-04-03T11:08:33.960Z,463.00
2023-04-03T11:09:33.683Z,465.00
2023-04-03T11:10:33.695Z,467.00
2023-04-03T11:11:33.663Z,466.00
2023-04-03T11:12:33.654Z,464.00
2023-04-03T11:13:33.644Z,463.00
2023-04-03T11:14:33.645Z,462.00
2023-04-03T11:15:33.632Z,465.00
2023-04-03T11:16:40.430Z,465.00
2023-04-03T11:17:33.643Z,464.00
2023-04-03T11:18:33.593Z,460.00
2023-04-03T11:19:33.580Z,458.00
2023-04-03T11:20:34.053Z,460.00
2023-04-03T11:21:33.563Z,461.00
2023-04-03T11:22:33.569Z,462.00
2023-04-03T11:23:45.953Z,466.00
2023-04-03T11:24:33.682Z,468.00
2023-04-03T11:25:33.528Z,469.00
2023-04-03T11:26:33.524Z,470.00
2023-04-03T11:27:33.513Z,466.00
2023-04-03T11:28:33.502Z,464.00
2023-04-03T11:29:35.329Z,464.00
2023-04-03T11:30:33.471Z,465.00
2023-04-03T11:31:33.547Z,465.00
2023-04-03T11:32:33.481Z,465.00
2023-04-03T11:33:33.447Z,464.00
2023-04-03T11:34:33.427Z,461.00
2023-04-03T11:35:33.425Z,461.00
2023-04-03T11:36:35.142Z,460.00
2023-04-03T11:37:33.395Z,461.00
2023-04-03T11:38:33.375Z,462.00
2023-04-03T11:39:33.363Z,461.00
2023-04-03T11:40:33.481Z,461.00
2023-04-03T11:41:33.358Z,460.00
2023-04-03T11:42:33.375Z,461.00
2023-04-03T11:43:33.333Z,462.00
2023-04-03T11:44:33.319Z,463.00
2023-04-03T11:45:33.314Z,462.00
2023-04-03T11:46:33.328Z,462.00
2023-04-03T11:47:33.303Z,458.00
2023-04-03T11:48:33.314Z,459.00
2023-04-03T11:49:33.256Z,460.00
2023-04-03T11:50:33.251Z,462.00
2023-04-03T11:51:33.215Z,463.00
2023-04-03T11:52:33.202Z,463.00
2023-04-03T11:53:33.198Z,463.00
2023-04-03T11:54:38.578Z,464.00
2023-04-03T11:55:33.190Z,465.00
2023-04-03T11:56:33.317Z,463.00
2023-04-03T11:57:33.148Z,464.00
2023-04-03T11:58:33.122Z,466.00
2023-04-03T11:59:33.115Z,464.00
2023-04-03T12:00:33.117Z,464.00
2023-04-03T12:01:33.109Z,463.00
2023-04-03T12:02:36.337Z,463.00
2023-04-03T12:03:33.138Z,461.00
2023-04-03T12:04:33.139Z,463.00
2023-04-03T12:05:33.092Z,461.00
2023-04-03T12:06:33.068Z,464.00
2023-04-03T12:07:33.056Z,463.00
2023-04-03T12:08:33.066Z,462.00
2023-04-03T12:09:33.033Z,461.00
2023-04-03T12:10:33.097Z,462.00
2023-04-03T12:11:33.022Z,462.00
2023-04-03T12:12:33.034Z,466.00
2023-04-03T12:13:33.011Z,468.00
2023-04-03T12:14:33.011Z,467.00
2023-04-03T12:15:32.984Z,466.00
2023-04-03T12:16:32.998Z,466.00
2023-04-03T12:17:33.037Z,468.00
2023-04-03T12:18:32.960Z,468.00
2023-04-03T12:19:41.794Z,468.00
2023-04-03T12:20:32.934Z,470.00
2023-04-03T12:21:32.932Z,472.00
2023-04-03T12:22:32.908Z,472.00
2023-04-03T12:23:32.906Z,471.00
2023-04-03T12:24:32.904Z,470.00
2023-04-03T12:25:32.886Z,468.00
2023-04-03T12:26:42.074Z,468.00
2023-04-03T12:27:32.874Z,467.00
2023-04-03T12:28:33.010Z,464.00